sensor_id;sensor_type;location;lat;lon;timestamp;P1;durP1;ratioP1;P2;durP2;ratioP2
16766;SDS011;8501;49.926;8.404;2024-03-25T00:00:08;3.17;;;1.80;;
16766;SDS011;8501;49.926;8.404;2024-03-25T00:02:37;2.90;;;1.80;;
16766;SDS011;8501;49.926;8.404;2024-03-25T00:05:03;3.50;;;2.10;;
16766;SDS011;8501;49.926;8.404;2024-03-25T00:07:30;4.57;;;2.07;;
16766;SDS011;8501;49.926;8.404;2024-03-25T00:09:56;4.63;;;2.10;;
16766;SDS011;8501;49.926;8.404;2024-03-25T00:12:24;6.40;;;2.00;;
16766;SDS011;8501;49.926;8.404;2024-03-25T00:14:52;6.00;;;2.10;;
16766;SDS011;8501;49.926;8.404;2024-03-25T00:17:17;4.57;;;2.10;;
16766;SDS011;8501;49.926;8.404;2024-03-25T00:19:44;3.77;;;1.90;;
16766;SDS011;8501;49.926;8.404;2024-03-25T00:22:15;4.30;;;2.00;;
16766;SDS011;8501;49.926;8.404;2024-03-25T00:24:41;6.83;;;2.33;;
16766;SDS011;8501;49.926;8.404;2024-03-25T00:27:07;6.20;;;2.20;;
16766;SDS011;8501;49.926;8.404;2024-03-25T00:29:33;5.23;;;2.50;;
16766;SDS011;8501;49.926;8.404;2024-03-25T00:31:58;4.13;;;1.90;;
16766;SDS011;8501;49.926;8.404;2024-03-25T00:34:24;7.83;;;2.27;;
16766;SDS011;8501;49.926;8.404;2024-03-25T00:36:49;5.67;;;2.07;;
16766;SDS011;8501;49.926;8.404;2024-03-25T00:39:15;4.70;;;2.47;;
16766;SDS011;8501;49.926;8.404;2024-03-25T00:41:41;4.73;;;2.10;;
16766;SDS011;8501;49.926;8.404;2024-03-25T00:44:06;6.13;;;2.07;;
16766;SDS011;8501;49.926;8.404;2024-03-25T00:46:32;5.90;;;2.13;;
16766;SDS011;8501;49.926;8.404;2024-03-25T00:48:58;7.10;;;2.20;;
16766;SDS011;8501;49.926;8.404;2024-03-25T00:51:23;5.00;;;2.37;;
16766;SDS011;8501;49.926;8.404;2024-03-25T00:53:49;4.30;;;2.30;;
16766;SDS011;8501;49.926;8.404;2024-03-25T00:56:14;6.23;;;2.20;;
16766;SDS011;8501;49.926;8.404;2024-03-25T00:58:41;3.43;;;2.17;;
16766;SDS011;8501;49.926;8.404;2024-03-25T01:01:06;5.37;;;2.20;;
16766;SDS011;8501;49.926;8.404;2024-03-25T01:03:32;6.67;;;2.47;;
16766;SDS011;8501;49.926;8.404;2024-03-25T01:05:58;4.93;;;2.30;;
16766;SDS011;8501;49.926;8.404;2024-03-25T01:08:24;5.13;;;2.10;;
16766;SDS011;8501;49.926;8.404;2024-03-25T01:10:49;5.73;;;2.20;;
16766;SDS011;8501;49.926;8.404;2024-03-25T01:13:15;6.63;;;2.30;;
16766;SDS011;8501;49.926;8.404;2024-03-25T01:15:41;6.03;;;2.43;;
16766;SDS011;8501;49.926;8.404;2024-03-25T01:18:07;4.27;;;2.20;;
16766;SDS011;8501;49.926;8.404;2024-03-25T01:20:33;4.90;;;2.20;;
16766;SDS011;8501;49.926;8.404;2024-03-25T01:22:58;5.03;;;2.10;;
16766;SDS011;8501;49.926;8.404;2024-03-25T01:25:24;3.53;;;1.97;;
16766;SDS011;8501;49.926;8.404;2024-03-25T01:27:50;4.60;;;2.30;;
16766;SDS011;8501;49.926;8.404;2024-03-25T01:30:16;5.07;;;2.60;;
16766;SDS011;8501;49.926;8.404;2024-03-25T01:32:43;6.10;;;2.53;;
16766;SDS011;8501;49.926;8.404;2024-03-25T01:35:11;8.57;;;3.67;;
16766;SDS011;8501;49.926;8.404;2024-03-25T01:37:37;5.17;;;2.57;;
16766;SDS011;8501;49.926;8.404;2024-03-25T01:40:03;8.37;;;2.97;;
16766;SDS011;8501;49.926;8.404;2024-03-25T01:42:29;6.13;;;2.40;;
16766;SDS011;8501;49.926;8.404;2024-03-25T01:44:55;5.67;;;2.60;;
16766;SDS011;8501;49.926;8.404;2024-03-25T01:47:20;7.77;;;2.90;;
16766;SDS011;8501;49.926;8.404;2024-03-25T01:49:46;5.13;;;2.57;;
16766;SDS011;8501;49.926;8.404;2024-03-25T01:52:13;4.23;;;2.50;;
16766;SDS011;8501;49.926;8.404;2024-03-25T01:54:38;7.67;;;2.87;;
16766;SDS011;8501;49.926;8.404;2024-03-25T01:57:04;6.07;;;2.50;;
16766;SDS011;8501;49.926;8.404;2024-03-25T01:59:30;3.87;;;2.40;;
16766;SDS011;8501;49.926;8.404;2024-03-25T02:01:56;5.00;;;2.47;;
16766;SDS011;8501;49.926;8.404;2024-03-25T02:04:22;6.07;;;2.47;;
16766;SDS011;8501;49.926;8.404;2024-03-25T02:06:47;5.40;;;2.40;;
16766;SDS011;8501;49.926;8.404;2024-03-25T02:09:15;6.60;;;2.40;;
16766;SDS011;8501;49.926;8.404;2024-03-25T02:11:41;5.13;;;2.67;;
16766;SDS011;8501;49.926;8.404;2024-03-25T02:14:07;5.00;;;2.37;;
16766;SDS011;8501;49.926;8.404;2024-03-25T02:16:33;4.87;;;2.30;;
16766;SDS011;8501;49.926;8.404;2024-03-25T02:18:58;5.40;;;2.53;;
16766;SDS011;8501;49.926;8.404;2024-03-25T02:21:24;6.70;;;2.60;;
16766;SDS011;8501;49.926;8.404;2024-03-25T02:23:50;6.43;;;2.70;;
16766;SDS011;8501;49.926;8.404;2024-03-25T02:26:19;6.10;;;2.70;;
16766;SDS011;8501;49.926;8.404;2024-03-25T02:28:44;5.37;;;2.57;;
16766;SDS011;8501;49.926;8.404;2024-03-25T02:31:10;7.23;;;2.67;;
16766;SDS011;8501;49.926;8.404;2024-03-25T02:33:35;7.47;;;2.70;;
16766;SDS011;8501;49.926;8.404;2024-03-25T02:36:01;7.20;;;2.90;;
16766;SDS011;8501;49.926;8.404;2024-03-25T02:38:26;6.20;;;2.70;;
16766;SDS011;8501;49.926;8.404;2024-03-25T02:40:52;3.73;;;2.53;;
16766;SDS011;8501;49.926;8.404;2024-03-25T02:43:19;8.53;;;2.80;;
16766;SDS011;8501;49.926;8.404;2024-03-25T02:45:46;5.03;;;2.63;;
16766;SDS011;8501;49.926;8.404;2024-03-25T02:48:12;4.50;;;2.43;;
16766;SDS011;8501;49.926;8.404;2024-03-25T02:50:37;4.70;;;2.70;;
16766;SDS011;8501;49.926;8.404;2024-03-25T02:53:03;6.47;;;3.00;;
16766;SDS011;8501;49.926;8.404;2024-03-25T02:55:28;6.07;;;2.77;;
16766;SDS011;8501;49.926;8.404;2024-03-25T02:57:54;13.87;;;4.40;;
16766;SDS011;8501;49.926;8.404;2024-03-25T03:00:19;5.67;;;2.70;;
16766;SDS011;8501;49.926;8.404;2024-03-25T03:02:45;5.40;;;2.60;;
16766;SDS011;8501;49.926;8.404;2024-03-25T03:05:10;6.37;;;2.70;;
16766;SDS011;8501;49.926;8.404;2024-03-25T03:07:36;5.97;;;2.90;;
16766;SDS011;8501;49.926;8.404;2024-03-25T03:10:01;3.90;;;2.60;;
16766;SDS011;8501;49.926;8.404;2024-03-25T03:12:27;8.87;;;3.40;;
16766;SDS011;8501;49.926;8.404;2024-03-25T03:14:52;6.83;;;2.70;;
16766;SDS011;8501;49.926;8.404;2024-03-25T03:17:18;5.60;;;2.80;;
16766;SDS011;8501;49.926;8.404;2024-03-25T03:19:44;3.50;;;2.50;;
16766;SDS011;8501;49.926;8.404;2024-03-25T03:22:10;7.70;;;2.70;;
16766;SDS011;8501;49.926;8.404;2024-03-25T03:24:35;7.13;;;3.10;;
16766;SDS011;8501;49.926;8.404;2024-03-25T03:27:01;5.83;;;2.70;;
16766;SDS011;8501;49.926;8.404;2024-03-25T03:29:26;5.17;;;2.67;;
16766;SDS011;8501;49.926;8.404;2024-03-25T03:31:52;7.83;;;2.50;;
16766;SDS011;8501;49.926;8.404;2024-03-25T03:34:17;7.03;;;2.67;;
16766;SDS011;8501;49.926;8.404;2024-03-25T03:36:43;4.73;;;2.50;;
16766;SDS011;8501;49.926;8.404;2024-03-25T03:39:08;8.37;;;3.50;;
16766;SDS011;8501;49.926;8.404;2024-03-25T03:41:34;6.33;;;2.77;;
16766;SDS011;8501;49.926;8.404;2024-03-25T03:44:00;9.10;;;2.70;;
16766;SDS011;8501;49.926;8.404;2024-03-25T03:46:26;8.27;;;2.83;;
16766;SDS011;8501;49.926;8.404;2024-03-25T03:48:52;4.27;;;2.80;;
16766;SDS011;8501;49.926;8.404;2024-03-25T03:51:17;7.37;;;2.97;;
16766;SDS011;8501;49.926;8.404;2024-03-25T03:53:43;8.17;;;2.73;;
16766;SDS011;8501;49.926;8.404;2024-03-25T03:56:08;5.37;;;2.60;;
16766;SDS011;8501;49.926;8.404;2024-03-25T03:58:34;7.63;;;3.20;;
16766;SDS011;8501;49.926;8.404;2024-03-25T04:01:00;6.80;;;3.07;;
16766;SDS011;8501;49.926;8.404;2024-03-25T04:03:27;7.97;;;2.90;;
16766;SDS011;8501;49.926;8.404;2024-03-25T04:05:52;6.50;;;2.63;;
16766;SDS011;8501;49.926;8.404;2024-03-25T04:08:18;7.73;;;2.80;;
16766;SDS011;8501;49.926;8.404;2024-03-25T04:10:44;6.03;;;2.53;;
16766;SDS011;8501;49.926;8.404;2024-03-25T04:13:10;4.60;;;2.70;;
16766;SDS011;8501;49.926;8.404;2024-03-25T04:15:36;5.87;;;2.83;;
16766;SDS011;8501;49.926;8.404;2024-03-25T04:18:03;4.77;;;2.80;;
16766;SDS011;8501;49.926;8.404;2024-03-25T04:20:29;8.73;;;3.60;;
16766;SDS011;8501;49.926;8.404;2024-03-25T04:23:00;5.03;;;2.67;;
16766;SDS011;8501;49.926;8.404;2024-03-25T04:25:26;6.63;;;3.07;;
16766;SDS011;8501;49.926;8.404;2024-03-25T04:27:51;7.87;;;3.00;;
16766;SDS011;8501;49.926;8.404;2024-03-25T04:30:17;5.10;;;3.00;;
16766;SDS011;8501;49.926;8.404;2024-03-25T04:32:42;4.43;;;2.70;;
16766;SDS011;8501;49.926;8.404;2024-03-25T04:35:08;8.30;;;2.73;;
16766;SDS011;8501;49.926;8.404;2024-03-25T04:37:34;6.90;;;2.67;;
16766;SDS011;8501;49.926;8.404;2024-03-25T04:40:00;9.03;;;3.17;;
16766;SDS011;8501;49.926;8.404;2024-03-25T04:42:25;5.00;;;2.80;;
16766;SDS011;8501;49.926;8.404;2024-03-25T04:44:51;11.10;;;2.80;;
16766;SDS011;8501;49.926;8.404;2024-03-25T04:47:17;5.87;;;2.97;;
16766;SDS011;8501;49.926;8.404;2024-03-25T04:49:43;8.63;;;3.20;;
16766;SDS011;8501;49.926;8.404;2024-03-25T04:52:09;7.83;;;3.03;;
16766;SDS011;8501;49.926;8.404;2024-03-25T04:54:35;7.97;;;2.90;;
16766;SDS011;8501;49.926;8.404;2024-03-25T04:57:01;6.37;;;2.80;;
16766;SDS011;8501;49.926;8.404;2024-03-25T04:59:26;7.73;;;2.83;;
16766;SDS011;8501;49.926;8.404;2024-03-25T05:01:52;6.40;;;2.90;;
16766;SDS011;8501;49.926;8.404;2024-03-25T05:04:18;6.17;;;2.90;;
16766;SDS011;8501;49.926;8.404;2024-03-25T05:06:45;8.07;;;3.10;;
16766;SDS011;8501;49.926;8.404;2024-03-25T05:09:11;5.73;;;2.63;;
16766;SDS011;8501;49.926;8.404;2024-03-25T05:11:36;5.47;;;2.83;;
16766;SDS011;8501;49.926;8.404;2024-03-25T05:14:02;4.07;;;2.90;;
16766;SDS011;8501;49.926;8.404;2024-03-25T05:16:27;10.57;;;3.60;;
16766;SDS011;8501;49.926;8.404;2024-03-25T05:18:53;7.33;;;3.07;;
16766;SDS011;8501;49.926;8.404;2024-03-25T05:21:18;7.60;;;2.80;;
16766;SDS011;8501;49.926;8.404;2024-03-25T05:23:44;7.70;;;3.13;;
16766;SDS011;8501;49.926;8.404;2024-03-25T05:26:09;5.37;;;3.00;;
16766;SDS011;8501;49.926;8.404;2024-03-25T05:28:35;6.70;;;2.80;;
16766;SDS011;8501;49.926;8.404;2024-03-25T05:31:09;6.97;;;3.07;;
16766;SDS011;8501;49.926;8.404;2024-03-25T05:33:35;5.93;;;2.83;;
16766;SDS011;8501;49.926;8.404;2024-03-25T05:36:02;7.63;;;3.00;;
16766;SDS011;8501;49.926;8.404;2024-03-25T05:38:28;6.70;;;2.60;;
16766;SDS011;8501;49.926;8.404;2024-03-25T05:40:54;4.77;;;2.80;;
16766;SDS011;8501;49.926;8.404;2024-03-25T05:43:20;7.47;;;3.10;;
16766;SDS011;8501;49.926;8.404;2024-03-25T05:45:52;9.10;;;3.10;;
16766;SDS011;8501;49.926;8.404;2024-03-25T05:48:19;8.23;;;3.00;;
16766;SDS011;8501;49.926;8.404;2024-03-25T05:51:00;6.10;;;3.20;;
16766;SDS011;8501;49.926;8.404;2024-03-25T05:53:30;8.57;;;3.20;;
16766;SDS011;8501;49.926;8.404;2024-03-25T05:55:56;6.77;;;3.27;;
16766;SDS011;8501;49.926;8.404;2024-03-25T05:58:24;6.53;;;2.80;;
16766;SDS011;8501;49.926;8.404;2024-03-25T06:00:49;6.73;;;2.90;;
16766;SDS011;8501;49.926;8.404;2024-03-25T06:03:15;5.97;;;2.70;;
16766;SDS011;8501;49.926;8.404;2024-03-25T06:05:44;9.30;;;3.47;;
16766;SDS011;8501;49.926;8.404;2024-03-25T06:08:10;5.57;;;2.87;;
16766;SDS011;8501;49.926;8.404;2024-03-25T06:10:45;9.07;;;4.07;;
16766;SDS011;8501;49.926;8.404;2024-03-25T06:13:11;7.93;;;3.23;;
16766;SDS011;8501;49.926;8.404;2024-03-25T06:15:36;8.00;;;3.43;;
16766;SDS011;8501;49.926;8.404;2024-03-25T06:18:02;10.03;;;3.03;;
16766;SDS011;8501;49.926;8.404;2024-03-25T06:20:27;8.03;;;2.97;;
16766;SDS011;8501;49.926;8.404;2024-03-25T06:22:53;5.50;;;2.70;;
16766;SDS011;8501;49.926;8.404;2024-03-25T06:25:18;7.10;;;3.07;;
16766;SDS011;8501;49.926;8.404;2024-03-25T06:27:44;5.70;;;3.00;;
16766;SDS011;8501;49.926;8.404;2024-03-25T06:30:09;6.63;;;3.93;;
16766;SDS011;8501;49.926;8.404;2024-03-25T06:32:54;8.57;;;3.07;;
16766;SDS011;8501;49.926;8.404;2024-03-25T06:35:38;6.27;;;3.00;;
16766;SDS011;8501;49.926;8.404;2024-03-25T06:38:04;5.77;;;3.03;;
16766;SDS011;8501;49.926;8.404;2024-03-25T06:40:29;8.17;;;3.20;;
16766;SDS011;8501;49.926;8.404;2024-03-25T06:42:55;7.80;;;3.17;;
16766;SDS011;8501;49.926;8.404;2024-03-25T06:45:21;6.43;;;3.07;;
16766;SDS011;8501;49.926;8.404;2024-03-25T06:47:47;8.63;;;3.13;;
16766;SDS011;8501;49.926;8.404;2024-03-25T06:50:12;9.60;;;3.37;;
16766;SDS011;8501;49.926;8.404;2024-03-25T06:52:38;8.70;;;3.27;;
16766;SDS011;8501;49.926;8.404;2024-03-25T06:55:03;9.87;;;3.33;;
16766;SDS011;8501;49.926;8.404;2024-03-25T06:57:29;6.17;;;3.13;;
16766;SDS011;8501;49.926;8.404;2024-03-25T06:59:55;7.53;;;3.10;;
16766;SDS011;8501;49.926;8.404;2024-03-25T07:02:22;7.57;;;2.93;;
16766;SDS011;8501;49.926;8.404;2024-03-25T07:04:48;7.40;;;2.70;;
16766;SDS011;8501;49.926;8.404;2024-03-25T07:07:14;4.37;;;2.40;;
16766;SDS011;8501;49.926;8.404;2024-03-25T07:09:42;5.07;;;2.30;;
16766;SDS011;8501;49.926;8.404;2024-03-25T07:12:08;8.33;;;3.00;;
16766;SDS011;8501;49.926;8.404;2024-03-25T07:14:33;9.30;;;3.23;;
16766;SDS011;8501;49.926;8.404;2024-03-25T07:16:59;6.13;;;2.63;;
16766;SDS011;8501;49.926;8.404;2024-03-25T07:19:24;5.67;;;2.60;;
16766;SDS011;8501;49.926;8.404;2024-03-25T07:21:56;4.90;;;2.77;;
16766;SDS011;8501;49.926;8.404;2024-03-25T07:24:21;7.57;;;2.40;;
16766;SDS011;8501;49.926;8.404;2024-03-25T07:26:46;8.33;;;2.50;;
16766;SDS011;8501;49.926;8.404;2024-03-25T07:29:12;6.33;;;2.60;;
16766;SDS011;8501;49.926;8.404;2024-03-25T07:31:38;4.37;;;2.37;;
16766;SDS011;8501;49.926;8.404;2024-03-25T07:34:03;7.27;;;2.23;;
16766;SDS011;8501;49.926;8.404;2024-03-25T07:36:29;6.30;;;2.23;;
16766;SDS011;8501;49.926;8.404;2024-03-25T07:38:58;7.33;;;2.00;;
16766;SDS011;8501;49.926;8.404;2024-03-25T07:41:24;4.57;;;2.00;;
16766;SDS011;8501;49.926;8.404;2024-03-25T07:43:49;6.50;;;2.03;;
16766;SDS011;8501;49.926;8.404;2024-03-25T07:46:15;5.50;;;1.87;;
16766;SDS011;8501;49.926;8.404;2024-03-25T07:48:40;6.33;;;2.10;;
16766;SDS011;8501;49.926;8.404;2024-03-25T07:51:07;5.40;;;2.00;;
16766;SDS011;8501;49.926;8.404;2024-03-25T07:53:32;6.03;;;2.10;;
16766;SDS011;8501;49.926;8.404;2024-03-25T07:55:58;7.03;;;2.00;;
16766;SDS011;8501;49.926;8.404;2024-03-25T07:58:23;5.97;;;1.90;;
16766;SDS011;8501;49.926;8.404;2024-03-25T08:00:49;7.23;;;1.87;;
16766;SDS011;8501;49.926;8.404;2024-03-25T08:03:15;10.37;;;2.53;;
16766;SDS011;8501;49.926;8.404;2024-03-25T08:05:41;5.63;;;1.83;;
16766;SDS011;8501;49.926;8.404;2024-03-25T08:08:07;7.43;;;2.10;;
16766;SDS011;8501;49.926;8.404;2024-03-25T08:10:32;9.43;;;2.40;;
16766;SDS011;8501;49.926;8.404;2024-03-25T08:12:58;11.73;;;2.10;;
16766;SDS011;8501;49.926;8.404;2024-03-25T08:15:23;9.53;;;2.40;;
16766;SDS011;8501;49.926;8.404;2024-03-25T08:17:49;9.63;;;2.60;;
16766;SDS011;8501;49.926;8.404;2024-03-25T08:20:15;9.90;;;2.90;;
16766;SDS011;8501;49.926;8.404;2024-03-25T08:22:40;6.37;;;2.10;;
16766;SDS011;8501;49.926;8.404;2024-03-25T08:25:06;9.83;;;2.50;;
16766;SDS011;8501;49.926;8.404;2024-03-25T08:27:31;10.07;;;2.27;;
16766;SDS011;8501;49.926;8.404;2024-03-25T08:29:57;8.67;;;2.47;;
16766;SDS011;8501;49.926;8.404;2024-03-25T08:32:23;8.23;;;2.07;;
16766;SDS011;8501;49.926;8.404;2024-03-25T08:34:48;9.67;;;2.33;;
16766;SDS011;8501;49.926;8.404;2024-03-25T08:37:13;8.37;;;2.40;;
16766;SDS011;8501;49.926;8.404;2024-03-25T08:39:39;10.60;;;2.17;;
16766;SDS011;8501;49.926;8.404;2024-03-25T08:42:04;6.33;;;2.60;;
16766;SDS011;8501;49.926;8.404;2024-03-25T08:44:30;10.03;;;2.07;;
16766;SDS011;8501;49.926;8.404;2024-03-25T08:46:55;8.43;;;2.23;;
16766;SDS011;8501;49.926;8.404;2024-03-25T08:49:21;6.60;;;2.23;;
16766;SDS011;8501;49.926;8.404;2024-03-25T08:51:47;7.50;;;2.17;;
16766;SDS011;8501;49.926;8.404;2024-03-25T08:54:12;11.03;;;2.83;;
16766;SDS011;8501;49.926;8.404;2024-03-25T08:56:38;10.07;;;2.50;;
16766;SDS011;8501;49.926;8.404;2024-03-25T08:59:03;8.33;;;2.10;;
16766;SDS011;8501;49.926;8.404;2024-03-25T09:01:29;6.53;;;2.43;;
16766;SDS011;8501;49.926;8.404;2024-03-25T09:03:55;7.60;;;2.53;;
16766;SDS011;8501;49.926;8.404;2024-03-25T09:06:21;9.97;;;2.17;;
16766;SDS011;8501;49.926;8.404;2024-03-25T09:08:47;7.10;;;2.73;;
16766;SDS011;8501;49.926;8.404;2024-03-25T09:11:31;5.27;;;2.30;;
16766;SDS011;8501;49.926;8.404;2024-03-25T09:13:57;7.63;;;3.90;;
16766;SDS011;8501;49.926;8.404;2024-03-25T09:16:22;6.50;;;2.67;;
16766;SDS011;8501;49.926;8.404;2024-03-25T09:18:49;8.00;;;2.50;;
16766;SDS011;8501;49.926;8.404;2024-03-25T09:21:15;8.43;;;2.90;;
16766;SDS011;8501;49.926;8.404;2024-03-25T09:23:40;6.47;;;2.60;;
16766;SDS011;8501;49.926;8.404;2024-03-25T09:26:06;6.37;;;2.20;;
16766;SDS011;8501;49.926;8.404;2024-03-25T09:28:32;3.80;;;1.97;;
16766;SDS011;8501;49.926;8.404;2024-03-25T09:30:57;9.30;;;4.00;;
16766;SDS011;8501;49.926;8.404;2024-03-25T09:33:23;3.80;;;2.50;;
16766;SDS011;8501;49.926;8.404;2024-03-25T09:35:49;5.83;;;2.70;;
16766;SDS011;8501;49.926;8.404;2024-03-25T09:38:14;8.77;;;3.00;;
16766;SDS011;8501;49.926;8.404;2024-03-25T09:40:40;6.07;;;2.83;;
16766;SDS011;8501;49.926;8.404;2024-03-25T09:43:06;5.67;;;2.60;;
16766;SDS011;8501;49.926;8.404;2024-03-25T09:45:42;6.93;;;2.77;;
16766;SDS011;8501;49.926;8.404;2024-03-25T09:48:13;6.10;;;2.90;;
16766;SDS011;8501;49.926;8.404;2024-03-25T09:50:44;7.03;;;3.40;;
16766;SDS011;8501;49.926;8.404;2024-03-25T09:53:10;6.30;;;2.67;;
16766;SDS011;8501;49.926;8.404;2024-03-25T09:55:36;5.67;;;2.87;;
16766;SDS011;8501;49.926;8.404;2024-03-25T09:58:04;7.67;;;3.77;;
16766;SDS011;8501;49.926;8.404;2024-03-25T10:00:30;6.40;;;3.63;;
16766;SDS011;8501;49.926;8.404;2024-03-25T10:02:56;8.07;;;3.20;;
16766;SDS011;8501;49.926;8.404;2024-03-25T10:05:21;8.10;;;2.40;;
16766;SDS011;8501;49.926;8.404;2024-03-25T10:07:47;9.53;;;3.10;;
16766;SDS011;8501;49.926;8.404;2024-03-25T10:10:13;5.33;;;2.40;;
16766;SDS011;8501;49.926;8.404;2024-03-25T10:12:38;6.40;;;2.80;;
16766;SDS011;8501;49.926;8.404;2024-03-25T10:15:06;5.30;;;2.60;;
16766;SDS011;8501;49.926;8.404;2024-03-25T10:17:31;5.20;;;2.23;;
16766;SDS011;8501;49.926;8.404;2024-03-25T10:19:57;6.63;;;2.37;;
16766;SDS011;8501;49.926;8.404;2024-03-25T10:22:22;8.80;;;2.53;;
16766;SDS011;8501;49.926;8.404;2024-03-25T10:24:48;6.03;;;2.93;;
16766;SDS011;8501;49.926;8.404;2024-03-25T10:27:23;6.23;;;2.53;;
16766;SDS011;8501;49.926;8.404;2024-03-25T10:29:53;8.00;;;2.37;;
16766;SDS011;8501;49.926;8.404;2024-03-25T10:32:21;5.67;;;2.50;;
16766;SDS011;8501;49.926;8.404;2024-03-25T10:34:50;5.63;;;2.60;;
16766;SDS011;8501;49.926;8.404;2024-03-25T10:37:18;6.90;;;3.13;;
16766;SDS011;8501;49.926;8.404;2024-03-25T10:39:47;7.23;;;2.50;;
16766;SDS011;8501;49.926;8.404;2024-03-25T10:42:15;8.67;;;2.63;;
16766;SDS011;8501;49.926;8.404;2024-03-25T10:44:43;3.60;;;2.40;;
16766;SDS011;8501;49.926;8.404;2024-03-25T10:47:09;7.50;;;2.30;;
16766;SDS011;8501;49.926;8.404;2024-03-25T10:49:44;5.80;;;2.30;;
16766;SDS011;8501;49.926;8.404;2024-03-25T10:52:21;5.47;;;2.40;;
16766;SDS011;8501;49.926;8.404;2024-03-25T10:54:48;4.03;;;2.30;;
16766;SDS011;8501;49.926;8.404;2024-03-25T10:57:14;4.03;;;2.30;;
16766;SDS011;8501;49.926;8.404;2024-03-25T10:59:43;5.33;;;2.53;;
16766;SDS011;8501;49.926;8.404;2024-03-25T11:02:10;5.13;;;2.30;;
16766;SDS011;8501;49.926;8.404;2024-03-25T11:04:36;4.83;;;2.60;;
16766;SDS011;8501;49.926;8.404;2024-03-25T11:07:09;4.90;;;2.50;;
16766;SDS011;8501;49.926;8.404;2024-03-25T11:09:35;8.00;;;2.60;;
16766;SDS011;8501;49.926;8.404;2024-03-25T11:12:01;6.07;;;2.73;;
16766;SDS011;8501;49.926;8.404;2024-03-25T11:14:27;4.43;;;2.60;;
16766;SDS011;8501;49.926;8.404;2024-03-25T11:16:53;4.90;;;2.43;;
16766;SDS011;8501;49.926;8.404;2024-03-25T11:19:25;4.47;;;2.47;;
16766;SDS011;8501;49.926;8.404;2024-03-25T11:21:52;5.53;;;2.93;;
16766;SDS011;8501;49.926;8.404;2024-03-25T11:24:27;5.93;;;2.80;;
16766;SDS011;8501;49.926;8.404;2024-03-25T11:26:53;3.33;;;2.50;;
16766;SDS011;8501;49.926;8.404;2024-03-25T11:29:19;4.67;;;2.60;;
16766;SDS011;8501;49.926;8.404;2024-03-25T11:31:45;4.43;;;2.93;;
16766;SDS011;8501;49.926;8.404;2024-03-25T11:34:13;4.57;;;2.30;;
16766;SDS011;8501;49.926;8.404;2024-03-25T11:36:39;3.67;;;2.40;;
16766;SDS011;8501;49.926;8.404;2024-03-25T11:39:04;5.03;;;2.70;;
16766;SDS011;8501;49.926;8.404;2024-03-25T11:41:34;6.37;;;2.70;;
16766;SDS011;8501;49.926;8.404;2024-03-25T11:44:04;5.83;;;2.80;;
16766;SDS011;8501;49.926;8.404;2024-03-25T11:46:30;8.30;;;3.90;;
16766;SDS011;8501;49.926;8.404;2024-03-25T11:48:56;7.50;;;4.13;;
16766;SDS011;8501;49.926;8.404;2024-03-25T11:51:22;5.57;;;3.73;;
16766;SDS011;8501;49.926;8.404;2024-03-25T11:53:47;5.23;;;3.17;;
16766;SDS011;8501;49.926;8.404;2024-03-25T11:56:13;6.00;;;2.90;;
16766;SDS011;8501;49.926;8.404;2024-03-25T11:58:39;5.33;;;2.80;;
16766;SDS011;8501;49.926;8.404;2024-03-25T12:01:04;4.03;;;2.87;;
16766;SDS011;8501;49.926;8.404;2024-03-25T12:03:30;7.60;;;2.80;;
16766;SDS011;8501;49.926;8.404;2024-03-25T12:05:58;5.83;;;2.90;;
16766;SDS011;8501;49.926;8.404;2024-03-25T12:08:23;8.67;;;3.43;;
16766;SDS011;8501;49.926;8.404;2024-03-25T12:10:51;7.73;;;3.20;;
16766;SDS011;8501;49.926;8.404;2024-03-25T12:13:37;6.20;;;2.60;;
16766;SDS011;8501;49.926;8.404;2024-03-25T12:16:06;5.30;;;2.67;;
16766;SDS011;8501;49.926;8.404;2024-03-25T12:18:33;5.97;;;3.07;;
16766;SDS011;8501;49.926;8.404;2024-03-25T12:20:59;5.57;;;3.33;;
16766;SDS011;8501;49.926;8.404;2024-03-25T12:23:28;6.73;;;3.20;;
16766;SDS011;8501;49.926;8.404;2024-03-25T12:25:55;4.80;;;2.77;;
16766;SDS011;8501;49.926;8.404;2024-03-25T12:28:21;5.07;;;2.80;;
16766;SDS011;8501;49.926;8.404;2024-03-25T12:30:51;4.07;;;2.80;;
16766;SDS011;8501;49.926;8.404;2024-03-25T12:33:17;6.63;;;3.10;;
16766;SDS011;8501;49.926;8.404;2024-03-25T12:35:46;6.47;;;2.77;;
16766;SDS011;8501;49.926;8.404;2024-03-25T12:40:53;5.83;;;2.40;;
16766;SDS011;8501;49.926;8.404;2024-03-25T12:43:28;4.63;;;2.50;;
16766;SDS011;8501;49.926;8.404;2024-03-25T12:45:56;6.40;;;2.30;;
16766;SDS011;8501;49.926;8.404;2024-03-25T12:48:22;5.27;;;2.50;;
16766;SDS011;8501;49.926;8.404;2024-03-25T12:50:47;3.67;;;2.50;;
16766;SDS011;8501;49.926;8.404;2024-03-25T12:53:16;4.57;;;2.47;;
16766;SDS011;8501;49.926;8.404;2024-03-25T12:55:42;4.43;;;2.13;;
16766;SDS011;8501;49.926;8.404;2024-03-25T12:58:08;4.17;;;2.43;;
16766;SDS011;8501;49.926;8.404;2024-03-25T13:00:34;6.00;;;2.30;;
16766;SDS011;8501;49.926;8.404;2024-03-25T13:03:00;4.63;;;2.60;;
16766;SDS011;8501;49.926;8.404;2024-03-25T13:05:27;4.30;;;2.10;;
16766;SDS011;8501;49.926;8.404;2024-03-25T13:07:53;6.03;;;2.40;;
16766;SDS011;8501;49.926;8.404;2024-03-25T13:10:19;6.47;;;2.63;;
16766;SDS011;8501;49.926;8.404;2024-03-25T13:12:45;4.07;;;2.50;;
16766;SDS011;8501;49.926;8.404;2024-03-25T13:15:10;3.43;;;2.30;;
16766;SDS011;8501;49.926;8.404;2024-03-25T13:17:36;3.97;;;2.17;;
16766;SDS011;8501;49.926;8.404;2024-03-25T13:20:02;3.53;;;2.40;;
16766;SDS011;8501;49.926;8.404;2024-03-25T13:22:29;6.60;;;2.53;;
16766;SDS011;8501;49.926;8.404;2024-03-25T13:24:56;4.67;;;2.40;;
16766;SDS011;8501;49.926;8.404;2024-03-25T13:27:22;4.70;;;2.13;;
16766;SDS011;8501;49.926;8.404;2024-03-25T13:29:47;3.40;;;3.10;;
16766;SDS011;8501;49.926;8.404;2024-03-25T13:32:13;4.83;;;2.60;;
16766;SDS011;8501;49.926;8.404;2024-03-25T13:34:38;5.03;;;2.40;;
16766;SDS011;8501;49.926;8.404;2024-03-25T13:37:04;3.87;;;2.60;;
16766;SDS011;8501;49.926;8.404;2024-03-25T13:39:30;3.87;;;1.97;;
16766;SDS011;8501;49.926;8.404;2024-03-25T13:41:55;4.20;;;2.13;;
16766;SDS011;8501;49.926;8.404;2024-03-25T13:44:21;4.03;;;2.20;;
16766;SDS011;8501;49.926;8.404;2024-03-25T13:46:46;5.03;;;2.10;;
16766;SDS011;8501;49.926;8.404;2024-03-25T13:49:12;3.93;;;2.20;;
16766;SDS011;8501;49.926;8.404;2024-03-25T13:51:40;4.70;;;2.13;;
16766;SDS011;8501;49.926;8.404;2024-03-25T13:54:05;3.80;;;2.43;;
16766;SDS011;8501;49.926;8.404;2024-03-25T13:56:31;4.33;;;2.00;;
16766;SDS011;8501;49.926;8.404;2024-03-25T13:58:57;3.60;;;2.50;;
16766;SDS011;8501;49.926;8.404;2024-03-25T14:01:22;5.63;;;2.00;;
16766;SDS011;8501;49.926;8.404;2024-03-25T14:03:49;4.10;;;1.90;;
16766;SDS011;8501;49.926;8.404;2024-03-25T14:06:15;4.53;;;2.13;;
16766;SDS011;8501;49.926;8.404;2024-03-25T14:08:40;3.33;;;1.80;;
16766;SDS011;8501;49.926;8.404;2024-03-25T14:11:07;4.83;;;2.00;;
16766;SDS011;8501;49.926;8.404;2024-03-25T14:13:32;4.47;;;2.00;;
16766;SDS011;8501;49.926;8.404;2024-03-25T14:15:58;4.37;;;2.33;;
16766;SDS011;8501;49.926;8.404;2024-03-25T14:18:23;2.80;;;2.30;;
16766;SDS011;8501;49.926;8.404;2024-03-25T14:20:51;3.83;;;2.13;;
16766;SDS011;8501;49.926;8.404;2024-03-25T14:23:17;4.63;;;2.10;;
16766;SDS011;8501;49.926;8.404;2024-03-25T14:25:42;3.22;;;2.20;;
16766;SDS011;8501;49.926;8.404;2024-03-25T14:28:08;4.93;;;2.55;;
16766;SDS011;8501;49.926;8.404;2024-03-25T14:30:33;4.32;;;2.00;;
16766;SDS011;8501;49.926;8.404;2024-03-25T14:32:59;4.03;;;2.05;;
16766;SDS011;8501;49.926;8.404;2024-03-25T14:35:24;4.68;;;2.00;;
16766;SDS011;8501;49.926;8.404;2024-03-25T14:37:50;3.58;;;2.00;;
16766;SDS011;8501;49.926;8.404;2024-03-25T14:40:15;2.83;;;1.88;;
16766;SDS011;8501;49.926;8.404;2024-03-25T14:42:44;4.22;;;2.00;;
16766;SDS011;8501;49.926;8.404;2024-03-25T14:45:09;3.13;;;1.80;;
16766;SDS011;8501;49.926;8.404;2024-03-25T14:47:35;3.28;;;1.98;;
16766;SDS011;8501;49.926;8.404;2024-03-25T14:50:01;2.75;;;1.90;;
16766;SDS011;8501;49.926;8.404;2024-03-25T14:52:26;3.67;;;2.03;;
16766;SDS011;8501;49.926;8.404;2024-03-25T14:54:52;2.30;;;1.75;;
16766;SDS011;8501;49.926;8.404;2024-03-25T14:57:17;4.28;;;2.00;;